sensor_id;sensor_type;location;lat;lon;timestamp;pressure;altitude;pressure_sealevel;temperature;humidity
62458;BME280;48509;52.122;5.250;2023-02-10T00:01:26;103533.0;;;1.99;100.0
62458;BME280;48509;52.122;5.250;2023-02-10T00:04:39;103532.0;;;2.04;99.18
62458;BME280;48509;52.122;5.250;2023-02-10T00:06:17;103530.0;;;2.0;98.74
62458;BME280;48509;52.122;5.250;2023-02-10T00:07:53;103530.0;;;1.84;99.87
62458;BME280;48509;52.122;5.250;2023-02-10T00:09:30;103531.0;;;1.91;99.02
62458;BME280;48509;52.122;5.250;2023-02-10T00:12:46;103526.0;;;1.92;99.47
62458;BME280;48509;52.122;5.250;2023-02-10T00:14:22;103528.0;;;1.79;99.45
62458;BME280;48509;52.122;5.250;2023-02-10T00:16:00;103529.0;;;1.67;99.55
62458;BME280;48509;52.122;5.250;2023-02-10T00:19:14;103536.99999999999;;;1.44;100.0
62458;BME280;48509;52.122;5.250;2023-02-10T00:20:50;103541.00000000001;;;1.31;100.0
62458;BME280;48509;52.122;5.250;2023-02-10T00:22:27;103533.99999999999;;;1.24;100.0
62458;BME280;48509;52.122;5.250;2023-02-10T00:25:40;103530.0;;;1.43;100.0
62458;BME280;48509;52.122;5.250;2023-02-10T00:27:23;103538.00000000001;;;1.37;100.0
62458;BME280;48509;52.122;5.250;2023-02-10T00:28:59;103541.00000000001;;;1.33;100.0
62458;BME280;48509;52.122;5.250;2023-02-10T00:30:36;103533.0;;;1.4;100.0
62458;BME280;48509;52.122;5.250;2023-02-10T00:33:49;103533.99999999999;;;1.54;100.0
62458;BME280;48509;52.122;5.250;2023-02-10T00:35:25;103536.99999999999;;;1.48;100.0
62458;BME280;48509;52.122;5.250;2023-02-10T00:37:01;103544.0;;;1.31;100.0
62458;BME280;48509;52.122;5.250;2023-02-10T00:40:16;103532.0;;;1.54;100.0
62458;BME280;48509;52.122;5.250;2023-02-10T00:41:53;103534.99999999999;;;1.57;100.0
62458;BME280;48509;52.122;5.250;2023-02-10T00:43:29;103539.00000000001;;;1.5;100.0
62458;BME280;48509;52.122;5.250;2023-02-10T00:48:20;103542.0;;;1.49;100.0
62458;BME280;48509;52.122;5.250;2023-02-10T00:49:56;103542.0;;;1.63;100.0
62458;BME280;48509;52.122;5.250;2023-02-10T00:51:32;103545.0;;;1.4;100.0
62458;BME280;48509;52.122;5.250;2023-02-10T00:54:45;103539.00000000001;;;1.31;100.0
62458;BME280;48509;52.122;5.250;2023-02-10T00:56:21;103541.00000000001;;;1.35;100.0
62458;BME280;48509;52.122;5.250;2023-02-10T00:57:58;103549.0;;;1.25;100.0
62458;BME280;48509;52.122;5.250;2023-02-10T01:01:11;103547.0;;;1.25;100.0
62458;BME280;48509;52.122;5.250;2023-02-10T01:02:47;103551.0;;;1.21;100.0
62458;BME280;48509;52.122;5.250;2023-02-10T01:04:23;103549.0;;;1.13;100.0
62458;BME280;48509;52.122;5.250;2023-02-10T01:06:00;103549.0;;;1.35;100.0
62458;BME280;48509;52.122;5.250;2023-02-10T01:09:12;103543.0;;;1.39;100.0
62458;BME280;48509;52.122;5.250;2023-02-10T01:10:48;103539.00000000001;;;1.46;100.0
62458;BME280;48509;52.122;5.250;2023-02-10T01:12:24;103533.0;;;1.51;100.0
62458;BME280;48509;52.122;5.250;2023-02-10T01:15:41;103543.0;;;1.32;100.0
62458;BME280;48509;52.122;5.250;2023-02-10T01:17:17;103545.0;;;1.23;100.0
62458;BME280;48509;52.122;5.250;2023-02-10T01:18:54;103550.0;;;1.17;100.0
62458;BME280;48509;52.122;5.250;2023-02-10T01:22:07;103555.0;;;1.18;100.0
62458;BME280;48509;52.122;5.250;2023-02-10T01:23:43;103564.00000000001;;;1.16;100.0
62458;BME280;48509;52.122;5.250;2023-02-10T01:25:20;103563.00000000001;;;1.21;100.0
62458;BME280;48509;52.122;5.250;2023-02-10T01:26:56;103563.00000000001;;;1.45;100.0
62458;BME280;48509;52.122;5.250;2023-02-10T01:30:11;103565.00000000001;;;1.53;100.0
62458;BME280;48509;52.122;5.250;2023-02-10T01:31:48;103565.00000000001;;;1.49;100.0
62458;BME280;48509;52.122;5.250;2023-02-10T01:33:24;103567.0;;;1.23;100.0
62458;BME280;48509;52.122;5.250;2023-02-10T01:36:36;103566.00000000001;;;1.13;100.0
62458;BME280;48509;52.122;5.250;2023-02-10T01:38:12;103567.0;;;1.07;100.0
62458;BME280;48509;52.122;5.250;2023-02-10T01:39:49;103568.0;;;1.02;100.0
62458;BME280;48509;52.122;5.250;2023-02-10T01:43:10;103571.0;;;1.14;100.0
62458;BME280;48509;52.122;5.250;2023-02-10T01:45:13;103567.0;;;1.39;100.0
62458;BME280;48509;52.122;5.250;2023-02-10T01:47:07;103574.0;;;1.36;100.0
62458;BME280;48509;52.122;5.250;2023-02-10T01:48:44;103574.0;;;1.45;100.0
62458;BME280;48509;52.122;5.250;2023-02-10T01:50:22;103567.0;;;1.5;100.0
62458;BME280;48509;52.122;5.250;2023-02-10T01:52:03;103567.0;;;1.35;100.0
62458;BME280;48509;52.122;5.250;2023-02-10T01:55:22;103567.0;;;1.32;100.0
62458;BME280;48509;52.122;5.250;2023-02-10T01:57:01;103568.0;;;1.29;100.0
62458;BME280;48509;52.122;5.250;2023-02-10T01:58:38;103569.0;;;1.25;100.0
62458;BME280;48509;52.122;5.250;2023-02-10T02:01:51;103569.0;;;1.01;100.0
62458;BME280;48509;52.122;5.250;2023-02-10T02:03:27;103569.0;;;0.95;100.0
62458;BME280;48509;52.122;5.250;2023-02-10T02:05:05;103569.0;;;1.29;100.0
62458;BME280;48509;52.122;5.250;2023-02-10T02:06:43;103567.0;;;1.33;100.0
62458;BME280;48509;52.122;5.250;2023-02-10T02:10:02;103573.0;;;1.19;100.0
62458;BME280;48509;52.122;5.250;2023-02-10T02:11:48;103571.0;;;1.13;100.0
62458;BME280;48509;52.122;5.250;2023-02-10T02:13:43;103571.0;;;1.0;100.0
62458;BME280;48509;52.122;5.250;2023-02-10T02:15:30;103574.0;;;0.97;100.0
62458;BME280;48509;52.122;5.250;2023-02-10T02:17:15;103573.0;;;1.17;100.0
62458;BME280;48509;52.122;5.250;2023-02-10T02:24:35;103576.0;;;0.96;100.0
62458;BME280;48509;52.122;5.250;2023-02-10T02:27:03;103572.0;;;1.01;100.0
62458;BME280;48509;52.122;5.250;2023-02-10T02:29:59;103572.0;;;1.1;100.0
62458;BME280;48509;52.122;5.250;2023-02-10T02:31:54;103574.0;;;0.98;100.0
62458;BME280;48509;52.122;5.250;2023-02-10T02:35:19;103574.0;;;0.97;100.0
62458;BME280;48509;52.122;5.250;2023-02-10T02:37:02;103573.0;;;0.99;100.0
62458;BME280;48509;52.122;5.250;2023-02-10T02:38:42;103579.0;;;0.82;100.0
62458;BME280;48509;52.122;5.250;2023-02-10T02:40:19;103578.0;;;0.85;100.0
62458;BME280;48509;52.122;5.250;2023-02-10T02:43:50;103583.99999999999;;;0.82;100.0
62458;BME280;48509;52.122;5.250;2023-02-10T02:45:32;103581.0;;;1.0;100.0
62458;BME280;48509;52.122;5.250;2023-02-10T02:47:22;103586.99999999999;;;1.01;100.0
62458;BME280;48509;52.122;5.250;2023-02-10T02:49:08;103589.00000000001;;;1.02;100.0
62458;BME280;48509;52.122;5.250;2023-02-10T02:50:53;103591.00000000001;;;1.18;100.0
62458;BME280;48509;52.122;5.250;2023-02-10T02:54:34;103584.99999999999;;;1.16;100.0
62458;BME280;48509;52.122;5.250;2023-02-10T02:56:23;103590.00000000001;;;1.06;100.0
62458;BME280;48509;52.122;5.250;2023-02-10T02:58:11;103591.00000000001;;;0.94;100.0
62458;BME280;48509;52.122;5.250;2023-02-10T02:59:54;103586.99999999999;;;0.81;100.0
62458;BME280;48509;52.122;5.250;2023-02-10T03:01:39;103586.99999999999;;;0.73;100.0
62458;BME280;48509;52.122;5.250;2023-02-10T03:03:18;103582.0;;;0.69;100.0
62458;BME280;48509;52.122;5.250;2023-02-10T03:06:32;103583.0;;;0.8;100.0
62458;BME280;48509;52.122;5.250;2023-02-10T03:08:08;103577.0;;;0.96;100.0
62458;BME280;48509;52.122;5.250;2023-02-10T03:09:44;103577.0;;;0.87;100.0
62458;BME280;48509;52.122;5.250;2023-02-10T03:12:58;103576.0;;;1.06;100.0
62458;BME280;48509;52.122;5.250;2023-02-10T03:14:34;103576.0;;;0.89;100.0
62458;BME280;48509;52.122;5.250;2023-02-10T03:16:10;103577.0;;;1.17;100.0
62458;BME280;48509;52.122;5.250;2023-02-10T03:17:46;103580.0;;;1.08;100.0
62458;BME280;48509;52.122;5.250;2023-02-10T03:20:58;103579.0;;;1.18;99.97
62458;BME280;48509;52.122;5.250;2023-02-10T03:22:35;103580.0;;;1.18;100.0
62458;BME280;48509;52.122;5.250;2023-02-10T03:24:11;103586.99999999999;;;1.1;100.0
62458;BME280;48509;52.122;5.250;2023-02-10T03:27:23;103583.0;;;0.96;100.0
62458;BME280;48509;52.122;5.250;2023-02-10T03:29:00;103579.0;;;0.99;100.0
62458;BME280;48509;52.122;5.250;2023-02-10T03:30:38;103571.0;;;1.14;100.0
62458;BME280;48509;52.122;5.250;2023-02-10T03:33:51;103576.0;;;0.99;100.0
62458;BME280;48509;52.122;5.250;2023-02-10T03:35:27;103580.0;;;0.91;100.0
62458;BME280;48509;52.122;5.250;2023-02-10T03:37:03;103584.99999999999;;;0.89;100.0
62458;BME280;48509;52.122;5.250;2023-02-10T03:38:39;103580.0;;;0.86;100.0
62458;BME280;48509;52.122;5.250;2023-02-10T03:41:53;103591.00000000001;;;0.76;100.0
62458;BME280;48509;52.122;5.250;2023-02-10T03:43:30;103591.00000000001;;;0.86;100.0
62458;BME280;48509;52.122;5.250;2023-02-10T03:45:07;103593.0;;;0.91;100.0
62458;BME280;48509;52.122;5.250;2023-02-10T03:48:19;103592.0;;;0.85;100.0
62458;BME280;48509;52.122;5.250;2023-02-10T03:49:55;103592.0;;;1.1;100.0
62458;BME280;48509;52.122;5.250;2023-02-10T03:51:31;103590.00000000001;;;1.12;100.0
62458;BME280;48509;52.122;5.250;2023-02-10T03:54:44;103590.00000000001;;;1.08;100.0
62458;BME280;48509;52.122;5.250;2023-02-10T03:56:20;103583.0;;;1.01;100.0
62458;BME280;48509;52.122;5.250;2023-02-10T03:57:57;103584.99999999999;;;0.98;100.0
62458;BME280;48509;52.122;5.250;2023-02-10T03:59:33;103584.99999999999;;;1.14;100.0
62458;BME280;48509;52.122;5.250;2023-02-10T04:02:49;103584.99999999999;;;0.98;100.0
62458;BME280;48509;52.122;5.250;2023-02-10T04:04:25;103590.00000000001;;;0.97;100.0
62458;BME280;48509;52.122;5.250;2023-02-10T04:06:01;103589.00000000001;;;0.86;100.0
62458;BME280;48509;52.122;5.250;2023-02-10T04:09:14;103590.00000000001;;;0.99;100.0
62458;BME280;48509;52.122;5.250;2023-02-10T04:10:50;103595.0;;;0.89;100.0
62458;BME280;48509;52.122;5.250;2023-02-10T04:12:27;103592.0;;;1.03;100.0
62458;BME280;48509;52.122;5.250;2023-02-10T04:15:39;103591.00000000001;;;1.07;100.0
62458;BME280;48509;52.122;5.250;2023-02-10T04:17:15;103592.0;;;0.9;100.0
62458;BME280;48509;52.122;5.250;2023-02-10T04:18:51;103597.0;;;0.84;100.0
62458;BME280;48509;52.122;5.250;2023-02-10T04:20:28;103596.0;;;1.13;100.0
62458;BME280;48509;52.122;5.250;2023-02-10T04:23:40;103601.0;;;0.83;100.0
62458;BME280;48509;52.122;5.250;2023-02-10T04:25:16;103601.0;;;0.79;100.0
62458;BME280;48509;52.122;5.250;2023-02-10T04:26:52;103606.0;;;0.8;100.0
62458;BME280;48509;52.122;5.250;2023-02-10T04:30:06;103603.0;;;0.81;100.0
62458;BME280;48509;52.122;5.250;2023-02-10T04:31:44;103604.0;;;0.82;100.0
62458;BME280;48509;52.122;5.250;2023-02-10T04:33:20;103607.0;;;1.04;100.0
62458;BME280;48509;52.122;5.250;2023-02-10T04:36:33;103609.99999999999;;;1.06;100.0
62458;BME280;48509;52.122;5.250;2023-02-10T04:38:09;103605.0;;;1.13;100.0
62458;BME280;48509;52.122;5.250;2023-02-10T04:39:46;103608.99999999999;;;1.02;100.0
62458;BME280;48509;52.122;5.250;2023-02-10T04:41:23;103608.0;;;0.97;100.0
62458;BME280;48509;52.122;5.250;2023-02-10T04:44:35;103613.00000000001;;;0.98;100.0
62458;BME280;48509;52.122;5.250;2023-02-10T04:46:12;103616.00000000001;;;0.78;100.0
62458;BME280;48509;52.122;5.250;2023-02-10T04:47:49;103607.0;;;0.68;100.0
62458;BME280;48509;52.122;5.250;2023-02-10T04:51:06;103604.0;;;0.68;100.0
62458;BME280;48509;52.122;5.250;2023-02-10T04:52:43;103600.0;;;0.69;100.0
62458;BME280;48509;52.122;5.250;2023-02-10T04:54:19;103594.0;;;0.89;100.0
62458;BME280;48509;52.122;5.250;2023-02-10T04:57:32;103584.99999999999;;;0.81;100.0
62458;BME280;48509;52.122;5.250;2023-02-10T04:59:08;103584.99999999999;;;0.8;100.0
62458;BME280;48509;52.122;5.250;2023-02-10T05:00:44;103580.0;;;0.86;100.0
62458;BME280;48509;52.122;5.250;2023-02-10T05:02:21;103583.0;;;0.88;100.0
62458;BME280;48509;52.122;5.250;2023-02-10T05:05:33;103583.99999999999;;;1.05;100.0
62458;BME280;48509;52.122;5.250;2023-02-10T05:07:11;103583.99999999999;;;1.05;100.0
62458;BME280;48509;52.122;5.250;2023-02-10T05:08:49;103589.00000000001;;;1.24;100.0
62458;BME280;48509;52.122;5.250;2023-02-10T05:12:04;103593.0;;;1.08;100.0
62458;BME280;48509;52.122;5.250;2023-02-10T05:13:40;103593.0;;;0.96;100.0
62458;BME280;48509;52.122;5.250;2023-02-10T05:15:17;103593.0;;;0.89;100.0
62458;BME280;48509;52.122;5.250;2023-02-10T05:18:31;103592.0;;;1.08;100.0
62458;BME280;48509;52.122;5.250;2023-02-10T05:20:08;103596.0;;;0.93;100.0
62458;BME280;48509;52.122;5.250;2023-02-10T05:21:45;103596.0;;;0.81;100.0
62458;BME280;48509;52.122;5.250;2023-02-10T05:23:22;103591.00000000001;;;0.72;100.0
62458;BME280;48509;52.122;5.250;2023-02-10T05:26:34;103597.0;;;0.66;100.0
62458;BME280;48509;52.122;5.250;2023-02-10T05:28:10;103596.0;;;0.68;100.0
62458;BME280;48509;52.122;5.250;2023-02-10T05:29:46;103599.0;;;0.76;100.0
62458;BME280;48509;52.122;5.250;2023-02-10T05:32:59;103600.0;;;0.92;100.0
62458;BME280;48509;52.122;5.250;2023-02-10T05:34:35;103601.0;;;1.13;100.0
62458;BME280;48509;52.122;5.250;2023-02-10T05:36:11;103595.0;;;1.06;100.0
62458;BME280;48509;52.122;5.250;2023-02-10T05:39:23;103601.0;;;0.87;100.0
62458;BME280;48509;52.122;5.250;2023-02-10T05:41:01;103605.0;;;0.8;100.0
62458;BME280;48509;52.122;5.250;2023-02-10T05:42:37;103608.0;;;0.71;100.0
62458;BME280;48509;52.122;5.250;2023-02-10T05:44:13;103604.0;;;0.74;100.0
62458;BME280;48509;52.122;5.250;2023-02-10T05:47:25;103598.0;;;0.7;100.0
62458;BME280;48509;52.122;5.250;2023-02-10T05:49:01;103599.0;;;0.66;100.0
62458;BME280;48509;52.122;5.250;2023-02-10T05:50:40;103592.0;;;0.84;100.0
62458;BME280;48509;52.122;5.250;2023-02-10T05:53:53;103592.0;;;1.0;100.0
62458;BME280;48509;52.122;5.250;2023-02-10T05:55:30;103583.0;;;1.1;100.0
62458;BME280;48509;52.122;5.250;2023-02-10T05:57:06;103588.00000000001;;;1.02;100.0
62458;BME280;48509;52.122;5.250;2023-02-10T06:00:20;103588.00000000001;;;1.31;100.0
62458;BME280;48509;52.122;5.250;2023-02-10T06:01:56;103588.00000000001;;;1.3;100.0
62458;BME280;48509;52.122;5.250;2023-02-10T06:03:32;103588.00000000001;;;1.11;100.0
62458;BME280;48509;52.122;5.250;2023-02-10T06:05:08;103595.0;;;0.99;100.0
62458;BME280;48509;52.122;5.250;2023-02-10T06:08:23;103598.0;;;1.1;100.0
62458;BME280;48509;52.122;5.250;2023-02-10T06:09:59;103599.0;;;1.0;100.0
62458;BME280;48509;52.122;5.250;2023-02-10T06:11:36;103605.0;;;1.02;100.0
62458;BME280;48509;52.122;5.250;2023-02-10T06:14:48;103597.0;;;1.13;100.0
62458;BME280;48509;52.122;5.250;2023-02-10T06:16:24;103598.0;;;1.26;100.0
62458;BME280;48509;52.122;5.250;2023-02-10T06:18:01;103604.0;;;1.25;100.0
62458;BME280;48509;52.122;5.250;2023-02-10T06:21:16;103611.99999999999;;;1.26;100.0
62458;BME280;48509;52.122;5.250;2023-02-10T06:22:52;103611.99999999999;;;1.0;100.0
62458;BME280;48509;52.122;5.250;2023-02-10T06:24:28;103609.99999999999;;;0.84;100.0
62458;BME280;48509;52.122;5.250;2023-02-10T06:26:04;103616.00000000001;;;0.82;100.0
62458;BME280;48509;52.122;5.250;2023-02-10T06:29:17;103615.00000000001;;;0.98;100.0
62458;BME280;48509;52.122;5.250;2023-02-10T06:30:53;103622.0;;;1.25;100.0
62458;BME280;48509;52.122;5.250;2023-02-10T06:32:30;103621.0;;;1.39;100.0
62458;BME280;48509;52.122;5.250;2023-02-10T06:35:45;103622.0;;;1.36;100.0
62458;BME280;48509;52.122;5.250;2023-02-10T06:37:23;103623.0;;;1.37;100.0
62458;BME280;48509;52.122;5.250;2023-02-10T06:38:59;103623.0;;;1.25;100.0
62458;BME280;48509;52.122;5.250;2023-02-10T06:42:12;103617.0;;;1.52;100.0
62458;BME280;48509;52.122;5.250;2023-02-10T06:43:49;103621.0;;;1.41;100.0
62458;BME280;48509;52.122;5.250;2023-02-10T06:45:24;103623.0;;;1.33;100.0
62458;BME280;48509;52.122;5.250;2023-02-10T06:47:00;103622.0;;;1.59;100.0
62458;BME280;48509;52.122;5.250;2023-02-10T06:50:13;103627.0;;;1.52;100.0
62458;BME280;48509;52.122;5.250;2023-02-10T06:51:50;103620.0;;;1.66;100.0
62458;BME280;48509;52.122;5.250;2023-02-10T06:53:26;103624.0;;;1.74;100.0
62458;BME280;48509;52.122;5.250;2023-02-10T06:56:39;103622.0;;;1.67;100.0
62458;BME280;48509;52.122;5.250;2023-02-10T06:58:16;103620.0;;;1.82;100.0
62458;BME280;48509;52.122;5.250;2023-02-10T06:59:53;103624.0;;;1.78;100.0
62458;BME280;48509;52.122;5.250;2023-02-10T07:03:05;103626.0;;;1.73;100.0
62458;BME280;48509;52.122;5.250;2023-02-10T07:04:41;103630.0;;;1.56;100.0
62458;BME280;48509;52.122;5.250;2023-02-10T07:06:18;103632.0;;;1.5;100.0
62458;BME280;48509;52.122;5.250;2023-02-10T07:07:55;103633.99999999999;;;1.53;100.0
62458;BME280;48509;52.122;5.250;2023-02-10T07:11:08;103632.0;;;1.35;100.0
62458;BME280;48509;52.122;5.250;2023-02-10T07:12:44;103627.0;;;1.52;100.0
62458;BME280;48509;52.122;5.250;2023-02-10T07:14:20;103625.0;;;1.59;100.0
62458;BME280;48509;52.122;5.250;2023-02-10T07:17:33;103625.0;;;1.78;100.0
62458;BME280;48509;52.122;5.250;2023-02-10T07:19:09;103630.0;;;1.61;100.0
62458;BME280;48509;52.122;5.250;2023-02-10T07:20:45;103629.0;;;1.53;100.0
62458;BME280;48509;52.122;5.250;2023-02-10T07:23:57;103631.0;;;1.55;100.0
62458;BME280;48509;52.122;5.250;2023-02-10T07:25:33;103634.99999999999;;;1.48;100.0
62458;BME280;48509;52.122;5.250;2023-02-10T07:27:09;103638.00000000001;;;1.74;100.0
62458;BME280;48509;52.122;5.250;2023-02-10T07:28:46;103636.99999999999;;;1.82;100.0
62458;BME280;48509;52.122;5.250;2023-02-10T07:32:00;103634.99999999999;;;1.84;100.0
62458;BME280;48509;52.122;5.250;2023-02-10T07:33:36;103639.00000000001;;;1.88;100.0
62458;BME280;48509;52.122;5.250;2023-02-10T07:35:13;103640.00000000001;;;1.91;100.0
62458;BME280;48509;52.122;5.250;2023-02-10T07:38:30;103649.0;;;1.9;100.0
62458;BME280;48509;52.122;5.250;2023-02-10T07:40:07;103663.00000000001;;;1.94;100.0
62458;BME280;48509;52.122;5.250;2023-02-10T07:41:45;103661.99999999999;;;2.07;100.0
62458;BME280;48509;52.122;5.250;2023-02-10T07:44:58;103667.0;;;2.09;100.0
62458;BME280;48509;52.122;5.250;2023-02-10T07:46:34;103672.0;;;2.04;100.0
62458;BME280;48509;52.122;5.250;2023-02-10T07:48:11;103666.00000000001;;;2.0;100.0
62458;BME280;48509;52.122;5.250;2023-02-10T07:49:47;103654.0;;;2.02;100.0
62458;BME280;48509;52.122;5.250;2023-02-10T07:53:00;103667.0;;;2.04;100.0
62458;BME280;48509;52.122;5.250;2023-02-10T07:54:36;103673.0;;;2.21;100.0
62458;BME280;48509;52.122;5.250;2023-02-10T07:56:13;103675.0;;;2.16;100.0
62458;BME280;48509;52.122;5.250;2023-02-10T07:59:28;103679.0;;;2.23;100.0
62458;BME280;48509;52.122;5.250;2023-02-10T08:01:06;103673.0;;;2.19;100.0
62458;BME280;48509;52.122;5.250;2023-02-10T08:02:43;103670.0;;;2.1;100.0
62458;BME280;48509;52.122;5.250;2023-02-10T08:04:19;103672.0;;;1.98;100.0
62458;BME280;48509;52.122;5.250;2023-02-10T08:07:32;103663.00000000001;;;2.11;100.0
62458;BME280;48509;52.122;5.250;2023-02-10T08:09:08;103663.00000000001;;;2.23;100.0
62458;BME280;48509;52.122;5.250;2023-02-10T08:10:47;103672.0;;;2.35;100.0
62458;BME280;48509;52.122;5.250;2023-02-10T08:14:00;103676.0;;;2.31;100.0
62458;BME280;48509;52.122;5.250;2023-02-10T08:15:38;103677.0;;;2.11;100.0
62458;BME280;48509;52.122;5.250;2023-02-10T08:17:14;103665.00000000001;;;1.97;100.0
62458;BME280;48509;52.122;5.250;2023-02-10T08:20:27;103666.00000000001;;;2.21;100.0
62458;BME280;48509;52.122;5.250;2023-02-10T08:22:03;103663.00000000001;;;2.13;100.0
62458;BME280;48509;52.122;5.250;2023-02-10T08:23:40;103655.0;;;2.17;100.0
62458;BME280;48509;52.122;5.250;2023-02-10T08:25:16;103658.99999999999;;;2.31;100.0
62458;BME280;48509;52.122;5.250;2023-02-10T08:28:29;103659.99999999999;;;2.36;100.0
62458;BME280;48509;52.122;5.250;2023-02-10T08:30:06;103658.0;;;2.5;100.0
62458;BME280;48509;52.122;5.250;2023-02-10T08:31:43;103661.99999999999;;;2.61;100.0
62458;BME280;48509;52.122;5.250;2023-02-10T08:34:55;103658.99999999999;;;2.59;100.0
62458;BME280;48509;52.122;5.250;2023-02-10T08:36:31;103658.99999999999;;;2.4;100.0
62458;BME280;48509;52.122;5.250;2023-02-10T08:38:09;103666.00000000001;;;2.4;100.0
62458;BME280;48509;52.122;5.250;2023-02-10T08:41:21;103659.99999999999;;;2.48;100.0
62458;BME280;48509;52.122;5.250;2023-02-10T08:42:57;103659.99999999999;;;2.4;100.0
62458;BME280;48509;52.122;5.250;2023-02-10T08:44:34;103667.0;;;2.71;100.0
62458;BME280;48509;52.122;5.250;2023-02-10T08:46:11;103667.0;;;2.64;100.0
62458;BME280;48509;52.122;5.250;2023-02-10T08:49:25;103667.0;;;2.81;100.0
62458;BME280;48509;52.122;5.250;2023-02-10T08:51:07;103672.0;;;2.87;100.0
62458;BME280;48509;52.122;5.250;2023-02-10T08:52:43;103667.0;;;2.92;100.0
62458;BME280;48509;52.122;5.250;2023-02-10T08:55:59;103675.0;;;2.92;100.0
62458;BME280;48509;52.122;5.250;2023-02-10T08:57:38;103672.0;;;2.96;100.0
62458;BME280;48509;52.122;5.250;2023-02-10T08:59:16;103673.0;;;2.99;100.0
62458;BME280;48509;52.122;5.250;2023-02-10T09:00:52;103669.0;;;2.98;100.0
62458;BME280;48509;52.122;5.250;2023-02-10T09:04:07;103673.0;;;3.26;100.0
62458;BME280;48509;52.122;5.250;2023-02-10T09:05:45;103676.0;;;3.1;100.0
62458;BME280;48509;52.122;5.250;2023-02-10T09:07:22;103679.0;;;3.14;100.0
62458;BME280;48509;52.122;5.250;2023-02-10T09:10:38;103684.99999999999;;;3.07;100.0
62458;BME280;48509;52.122;5.250;2023-02-10T09:12:14;103684.99999999999;;;3.22;100.0
62458;BME280;48509;52.122;5.250;2023-02-10T09:13:51;103684.99999999999;;;3.32;100.0
62458;BME280;48509;52.122;5.250;2023-02-10T09:15:28;103684.99999999999;;;3.48;100.0
62458;BME280;48509;52.122;5.250;2023-02-10T09:18:41;103683.0;;;3.36;100.0
62458;BME280;48509;52.122;5.250;2023-02-10T09:20:17;103681.0;;;3.42;100.0
62458;BME280;48509;52.122;5.250;2023-02-10T09:21:55;103681.0;;;3.5;100.0
62458;BME280;48509;52.122;5.250;2023-02-10T09:25:08;103688.00000000001;;;3.49;100.0
62458;BME280;48509;52.122;5.250;2023-02-10T09:26:44;103691.00000000001;;;3.67;100.0
62458;BME280;48509;52.122;5.250;2023-02-10T09:28:21;103692.0;;;3.56;100.0
62458;BME280;48509;52.122;5.250;2023-02-10T09:31:35;103689.00000000001;;;3.68;100.0
62458;BME280;48509;52.122;5.250;2023-02-10T09:33:12;103689.00000000001;;;3.67;100.0
62458;BME280;48509;52.122;5.250;2023-02-10T09:34:48;103690.00000000001;;;3.91;100.0
62458;BME280;48509;52.122;5.250;2023-02-10T09:36:24;103692.0;;;3.82;100.0
62458;BME280;48509;52.122;5.250;2023-02-10T09:39:38;103692.0;;;3.87;100.0
62458;BME280;48509;52.122;5.250;2023-02-10T09:41:23;103691.00000000001;;;3.92;100.0
62458;BME280;48509;52.122;5.250;2023-02-10T09:43:18;103692.0;;;4.03;100.0
62458;BME280;48509;52.122;5.250;2023-02-10T09:45:10;103693.0;;;4.2;100.0
62458;BME280;48509;52.122;5.250;2023-02-10T09:49:08;103689.00000000001;;;4.3;100.0
62458;BME280;48509;52.122;5.250;2023-02-10T09:52:43;103683.99999999999;;;4.22;100.0
62458;BME280;48509;52.122;5.250;2023-02-10T09:54:31;103686.99999999999;;;4.32;100.0
62458;BME280;48509;52.122;5.250;2023-02-10T09:56:14;103686.99999999999;;;4.36;100.0
62458;BME280;48509;52.122;5.250;2023-02-10T09:57:56;103689.00000000001;;;4.32;100.0
62458;BME280;48509;52.122;5.250;2023-02-10T09:59:37;103686.99999999999;;;4.46;100.0
62458;BME280;48509;52.122;5.250;2023-02-10T10:02:57;103691.00000000001;;;4.53;100.0
62458;BME280;48509;52.122;5.250;2023-02-10T10:04:37;103681.0;;;4.57;100.0
62458;BME280;48509;52.122;5.250;2023-02-10T10:06:19;103681.0;;;4.61;100.0
62458;BME280;48509;52.122;5.250;2023-02-10T10:07:58;103686.99999999999;;;4.68;100.0
62458;BME280;48509;52.122;5.250;2023-02-10T10:11:24;103689.00000000001;;;4.67;100.0
62458;BME280;48509;52.122;5.250;2023-02-10T10:13:02;103686.99999999999;;;4.66;100.0
62458;BME280;48509;52.122;5.250;2023-02-10T10:14:40;103691.00000000001;;;4.66;100.0
62458;BME280;48509;52.122;5.250;2023-02-10T10:16:21;103689.00000000001;;;4.74;100.0
62458;BME280;48509;52.122;5.250;2023-02-10T10:19:59;103689.00000000001;;;4.78;100.0
62458;BME280;48509;52.122;5.250;2023-02-10T10:21:51;103691.00000000001;;;4.86;100.0
62458;BME280;48509;52.122;5.250;2023-02-10T10:23:43;103680.0;;;4.91;100.0
62458;BME280;48509;52.122;5.250;2023-02-10T10:25:43;103673.0;;;4.96;100.0
62458;BME280;48509;52.122;5.250;2023-02-10T10:28:23;103668.0;;;5.01;100.0
62458;BME280;48509;52.122;5.250;2023-02-10T10:30:09;103668.0;;;5.16;100.0
62458;BME280;48509;52.122;5.250;2023-02-10T10:31:52;103671.0;;;5.12;100.0
62458;BME280;48509;52.122;5.250;2023-02-10T10:33:37;103668.0;;;5.22;100.0
62458;BME280;48509;52.122;5.250;2023-02-10T10:35:18;103667.0;;;5.36;100.0
62458;BME280;48509;52.122;5.250;2023-02-10T10:38:41;103666.00000000001;;;5.4;100.0
62458;BME280;48509;52.122;5.250;2023-02-10T10:40:26;103667.0;;;5.52;100.0
62458;BME280;48509;52.122;5.250;2023-02-10T10:42:16;103666.00000000001;;;5.57;99.44
62458;BME280;48509;52.122;5.250;2023-02-10T10:43:56;103659.99999999999;;;5.56;99.84
62458;BME280;48509;52.122;5.250;2023-02-10T10:45:35;103666.00000000001;;;5.66;99.1
62458;BME280;48509;52.122;5.250;2023-02-10T10:49:01;103664.00000000001;;;5.87;98.9
62458;BME280;48509;52.122;5.250;2023-02-10T10:50:38;103666.00000000001;;;5.81;98.3
62458;BME280;48509;52.122;5.250;2023-02-10T10:52:25;103678.0;;;5.85;98.52
62458;BME280;48509;52.122;5.250;2023-02-10T10:54:04;103678.0;;;5.91;98.01